sensor_id;sensor_type;location;lat;lon;timestamp;temperature;humidity
69464;DHT22;56665;41.106;16.688;2022-08-01T00:00:41;26.19;60.21
69464;DHT22;56665;41.106;16.688;2022-08-01T00:03:44;26.14;60.26
69464;DHT22;56665;41.106;16.688;2022-08-01T00:06:48;26.16;60.31
69464;DHT22;56665;41.106;16.688;2022-08-01T00:09:52;26.12;60.48
69464;DHT22;56665;41.106;16.688;2022-08-01T00:12:55;26.09;60.56
69464;DHT22;56665;41.106;16.688;2022-08-01T00:15:59;26.06;60.72
69464;DHT22;56665;41.106;16.688;2022-08-01T00:19:03;26.12;60.80
69464;DHT22;56665;41.106;16.688;2022-08-01T00:22:07;26.10;60.73
69464;DHT22;56665;41.106;16.688;2022-08-01T00:25:12;26.09;60.57
69464;DHT22;56665;41.106;16.688;2022-08-01T00:28:15;26.04;60.76
69464;DHT22;56665;41.106;16.688;2022-08-01T00:31:19;26.02;60.77
69464;DHT22;56665;41.106;16.688;2022-08-01T00:34:24;26.03;60.91
69464;DHT22;56665;41.106;16.688;2022-08-01T00:37:28;25.99;60.89
69464;DHT22;56665;41.106;16.688;2022-08-01T00:40:31;25.94;60.93
69464;DHT22;56665;41.106;16.688;2022-08-01T00:43:35;25.94;61.05
69464;DHT22;56665;41.106;16.688;2022-08-01T00:46:39;25.94;61.00
69464;DHT22;56665;41.106;16.688;2022-08-01T00:49:44;25.93;60.98
69464;DHT22;56665;41.106;16.688;2022-08-01T00:52:48;25.89;61.03
69464;DHT22;56665;41.106;16.688;2022-08-01T00:55:53;25.90;60.97
69464;DHT22;56665;41.106;16.688;2022-08-01T00:58:57;25.90;60.89
69464;DHT22;56665;41.106;16.688;2022-08-01T01:02:01;25.82;60.85
69464;DHT22;56665;41.106;16.688;2022-08-01T01:05:05;25.81;61.05
69464;DHT22;56665;41.106;16.688;2022-08-01T01:08:22;25.79;60.97
69464;DHT22;56665;41.106;16.688;2022-08-01T01:18:38;25.69;61.08
69464;DHT22;56665;41.106;16.688;2022-08-01T01:22:07;25.66;61.28
69464;DHT22;56665;41.106;16.688;2022-08-01T01:32:20;25.65;61.69
69464;DHT22;56665;41.106;16.688;2022-08-01T01:35:30;25.62;61.89
69464;DHT22;56665;41.106;16.688;2022-08-01T01:38:39;25.65;62.01
69464;DHT22;56665;41.106;16.688;2022-08-01T01:41:46;25.59;62.18
69464;DHT22;56665;41.106;16.688;2022-08-01T01:44:52;25.62;62.31
69464;DHT22;56665;41.106;16.688;2022-08-01T01:47:56;25.61;62.44
69464;DHT22;56665;41.106;16.688;2022-08-01T01:51:02;25.59;62.61
69464;DHT22;56665;41.106;16.688;2022-08-01T01:54:08;25.58;62.65
69464;DHT22;56665;41.106;16.688;2022-08-01T01:57:13;25.59;62.71
69464;DHT22;56665;41.106;16.688;2022-08-01T02:00:18;25.59;62.64
69464;DHT22;56665;41.106;16.688;2022-08-01T02:03:22;25.58;62.71
69464;DHT22;56665;41.106;16.688;2022-08-01T02:06:27;25.58;62.77
69464;DHT22;56665;41.106;16.688;2022-08-01T02:09:33;25.57;62.77
69464;DHT22;56665;41.106;16.688;2022-08-01T02:12:40;25.52;62.91
69464;DHT22;56665;41.106;16.688;2022-08-01T02:15:45;25.51;62.94
69464;DHT22;56665;41.106;16.688;2022-08-01T02:18:48;25.49;63.00
69464;DHT22;56665;41.106;16.688;2022-08-01T02:21:56;25.49;62.97
69464;DHT22;56665;41.106;16.688;2022-08-01T02:25:10;25.44;63.02
69464;DHT22;56665;41.106;16.688;2022-08-01T02:28:53;25.44;63.02
69464;DHT22;56665;41.106;16.688;2022-08-01T02:32:00;25.41;63.00
69464;DHT22;56665;41.106;16.688;2022-08-01T02:35:07;25.39;63.07
69464;DHT22;56665;41.106;16.688;2022-08-01T02:38:14;25.35;63.14
69464;DHT22;56665;41.106;16.688;2022-08-01T02:41:20;25.35;63.13
69464;DHT22;56665;41.106;16.688;2022-08-01T02:44:30;25.34;63.06
69464;DHT22;56665;41.106;16.688;2022-08-01T02:47:36;25.34;62.97
69464;DHT22;56665;41.106;16.688;2022-08-01T02:50:42;25.30;63.04
69464;DHT22;56665;41.106;16.688;2022-08-01T02:53:48;25.31;62.91
69464;DHT22;56665;41.106;16.688;2022-08-01T02:56:55;25.28;62.83
69464;DHT22;56665;41.106;16.688;2022-08-01T03:00:00;25.28;62.67
69464;DHT22;56665;41.106;16.688;2022-08-01T03:03:06;25.30;62.66
69464;DHT22;56665;41.106;16.688;2022-08-01T03:06:12;25.25;62.60
69464;DHT22;56665;41.106;16.688;2022-08-01T03:09:16;25.21;62.80
69464;DHT22;56665;41.106;16.688;2022-08-01T03:12:25;25.22;62.69
69464;DHT22;56665;41.106;16.688;2022-08-01T03:15:31;25.22;62.63
69464;DHT22;56665;41.106;16.688;2022-08-01T03:18:35;25.21;62.42
69464;DHT22;56665;41.106;16.688;2022-08-01T03:21:40;25.20;62.38
69464;DHT22;56665;41.106;16.688;2022-08-01T03:24:48;25.13;62.34
69464;DHT22;56665;41.106;16.688;2022-08-01T03:27:55;25.10;62.33
69464;DHT22;56665;41.106;16.688;2022-08-01T03:31:01;25.13;62.16
69464;DHT22;56665;41.106;16.688;2022-08-01T03:34:06;25.11;62.08
69464;DHT22;56665;41.106;16.688;2022-08-01T03:37:26;25.11;61.92
69464;DHT22;56665;41.106;16.688;2022-08-01T03:43:46;25.04;61.74
69464;DHT22;56665;41.106;16.688;2022-08-01T03:46:59;25.06;61.84
69464;DHT22;56665;41.106;16.688;2022-08-01T03:50:05;25.01;61.81
69464;DHT22;56665;41.106;16.688;2022-08-01T03:53:11;25.03;61.75
69464;DHT22;56665;41.106;16.688;2022-08-01T03:56:18;25.03;61.82
69464;DHT22;56665;41.106;16.688;2022-08-01T03:59:22;25.03;61.73
69464;DHT22;56665;41.106;16.688;2022-08-01T04:02:27;25.01;61.74
69464;DHT22;56665;41.106;16.688;2022-08-01T04:05:30;25.00;61.68
69464;DHT22;56665;41.106;16.688;2022-08-01T04:08:36;25.03;61.54
69464;DHT22;56665;41.106;16.688;2022-08-01T04:11:40;25.03;61.49
69464;DHT22;56665;41.106;16.688;2022-08-01T04:14:44;25.07;61.42
69464;DHT22;56665;41.106;16.688;2022-08-01T04:17:48;25.11;61.20
69464;DHT22;56665;41.106;16.688;2022-08-01T04:20:51;25.14;60.99
69464;DHT22;56665;41.106;16.688;2022-08-01T04:24:02;25.21;60.81
69464;DHT22;56665;41.106;16.688;2022-08-01T04:27:11;25.20;60.68
69464;DHT22;56665;41.106;16.688;2022-08-01T04:30:20;25.21;60.55
69464;DHT22;56665;41.106;16.688;2022-08-01T04:33:25;25.28;60.43
69464;DHT22;56665;41.106;16.688;2022-08-01T04:36:30;25.31;60.40
69464;DHT22;56665;41.106;16.688;2022-08-01T04:39:37;25.34;60.23
69464;DHT22;56665;41.106;16.688;2022-08-01T04:42:43;25.46;60.00
69464;DHT22;56665;41.106;16.688;2022-08-01T04:45:47;25.58;59.52
69464;DHT22;56665;41.106;16.688;2022-08-01T04:48:51;25.73;59.11
69464;DHT22;56665;41.106;16.688;2022-08-01T04:52:00;25.94;58.56
69464;DHT22;56665;41.106;16.688;2022-08-01T04:55:04;26.16;57.86
69464;DHT22;56665;41.106;16.688;2022-08-01T04:58:12;26.34;57.27
69464;DHT22;56665;41.106;16.688;2022-08-01T05:01:17;26.50;56.88
69464;DHT22;56665;41.106;16.688;2022-08-01T05:04:21;26.75;56.20
69464;DHT22;56665;41.106;16.688;2022-08-01T05:07:25;26.92;55.64
69464;DHT22;56665;41.106;16.688;2022-08-01T05:10:28;27.03;55.20
69464;DHT22;56665;41.106;16.688;2022-08-01T05:13:32;27.23;54.61
69464;DHT22;56665;41.106;16.688;2022-08-01T05:16:36;27.42;54.18
69464;DHT22;56665;41.106;16.688;2022-08-01T05:19:40;27.63;53.64
69464;DHT22;56665;41.106;16.688;2022-08-01T05:22:46;27.82;53.26
69464;DHT22;56665;41.106;16.688;2022-08-01T05:25:50;28.00;52.67
69464;DHT22;56665;41.106;16.688;2022-08-01T05:28:54;28.11;52.23
69464;DHT22;56665;41.106;16.688;2022-08-01T05:31:57;28.29;52.09
69464;DHT22;56665;41.106;16.688;2022-08-01T05:35:02;28.55;51.64
69464;DHT22;56665;41.106;16.688;2022-08-01T05:38:06;28.73;51.13
69464;DHT22;56665;41.106;16.688;2022-08-01T05:41:12;28.94;50.91
69464;DHT22;56665;41.106;16.688;2022-08-01T05:44:15;29.10;50.67
69464;DHT22;56665;41.106;16.688;2022-08-01T05:47:19;29.37;50.35
69464;DHT22;56665;41.106;16.688;2022-08-01T05:50:23;29.52;50.05
69464;DHT22;56665;41.106;16.688;2022-08-01T05:53:28;29.58;49.73
69464;DHT22;56665;41.106;16.688;2022-08-01T05:56:32;29.69;49.66
69464;DHT22;56665;41.106;16.688;2022-08-01T05:59:35;29.81;49.09
69464;DHT22;56665;41.106;16.688;2022-08-01T06:02:41;29.81;49.18
69464;DHT22;56665;41.106;16.688;2022-08-01T06:05:46;30.07;48.64
69464;DHT22;56665;41.106;16.688;2022-08-01T06:08:50;30.26;48.13
69464;DHT22;56665;41.106;16.688;2022-08-01T06:11:54;30.53;47.63
69464;DHT22;56665;41.106;16.688;2022-08-01T06:15:00;30.82;46.95
69464;DHT22;56665;41.106;16.688;2022-08-01T06:18:03;31.05;46.51
69464;DHT22;56665;41.106;16.688;2022-08-01T06:21:08;31.39;45.60
69464;DHT22;56665;41.106;16.688;2022-08-01T06:24:13;31.66;45.38
69464;DHT22;56665;41.106;16.688;2022-08-01T06:27:17;31.91;45.02
69464;DHT22;56665;41.106;16.688;2022-08-01T06:30:24;32.14;43.98
69464;DHT22;56665;41.106;16.688;2022-08-01T06:33:28;32.42;42.06
69464;DHT22;56665;41.106;16.688;2022-08-01T06:36:32;32.62;40.90
69464;DHT22;56665;41.106;16.688;2022-08-01T06:39:36;32.68;40.76
69464;DHT22;56665;41.106;16.688;2022-08-01T06:42:39;32.42;41.44
69464;DHT22;56665;41.106;16.688;2022-08-01T06:45:43;32.55;41.24
69464;DHT22;56665;41.106;16.688;2022-08-01T06:48:46;32.86;41.12
69464;DHT22;56665;41.106;16.688;2022-08-01T06:51:52;33.14;40.93
69464;DHT22;56665;41.106;16.688;2022-08-01T06:54:56;33.31;40.60
69464;DHT22;56665;41.106;16.688;2022-08-01T06:58:02;33.30;39.12
69464;DHT22;56665;41.106;16.688;2022-08-01T07:01:05;33.33;38.49
69464;DHT22;56665;41.106;16.688;2022-08-01T07:04:09;33.60;38.69
69464;DHT22;56665;41.106;16.688;2022-08-01T07:07:14;33.82;39.67
69464;DHT22;56665;41.106;16.688;2022-08-01T07:10:18;33.98;39.52
69464;DHT22;56665;41.106;16.688;2022-08-01T07:13:21;34.36;38.71
69464;DHT22;56665;41.106;16.688;2022-08-01T07:16:27;34.73;37.93
69464;DHT22;56665;41.106;16.688;2022-08-01T07:19:31;34.61;36.32
69464;DHT22;56665;41.106;16.688;2022-08-01T07:22:36;34.97;35.24
69464;DHT22;56665;41.106;16.688;2022-08-01T07:25:40;35.42;34.71
69464;DHT22;56665;41.106;16.688;2022-08-01T07:28:45;35.75;32.86
69464;DHT22;56665;41.106;16.688;2022-08-01T07:31:48;36.05;32.55
69464;DHT22;56665;41.106;16.688;2022-08-01T07:34:52;36.80;31.90
69464;DHT22;56665;41.106;16.688;2022-08-01T07:37:56;37.38;31.13
69464;DHT22;56665;41.106;16.688;2022-08-01T07:41:00;37.87;31.46
69464;DHT22;56665;41.106;16.688;2022-08-01T07:44:04;39.50;29.38
69464;DHT22;56665;41.106;16.688;2022-08-01T07:47:07;40.78;28.87
69464;DHT22;56665;41.106;16.688;2022-08-01T07:50:12;42.33;27.58
69464;DHT22;56665;41.106;16.688;2022-08-01T07:53:16;43.80;26.33
69464;DHT22;56665;41.106;16.688;2022-08-01T07:56:20;44.87;25.46
69464;DHT22;56665;41.106;16.688;2022-08-01T07:59:27;45.93;24.54
69464;DHT22;56665;41.106;16.688;2022-08-01T08:02:31;46.21;23.82
69464;DHT22;56665;41.106;16.688;2022-08-01T08:05:37;46.23;24.11
69464;DHT22;56665;41.106;16.688;2022-08-01T08:08:41;46.38;24.29
69464;DHT22;56665;41.106;16.688;2022-08-01T08:11:46;46.75;23.58
69464;DHT22;56665;41.106;16.688;2022-08-01T08:14:50;46.10;24.11
69464;DHT22;56665;41.106;16.688;2022-08-01T08:17:53;45.79;23.22
69464;DHT22;56665;41.106;16.688;2022-08-01T08:20:58;45.96;23.37
69464;DHT22;56665;41.106;16.688;2022-08-01T08:24:02;45.43;23.72
69464;DHT22;56665;41.106;16.688;2022-08-01T08:27:23;44.75;24.49
69464;DHT22;56665;41.106;16.688;2022-08-01T08:30:27;45.26;23.67
69464;DHT22;56665;41.106;16.688;2022-08-01T08:33:32;44.58;23.29
69464;DHT22;56665;41.106;16.688;2022-08-01T08:36:36;44.01;24.20
69464;DHT22;56665;41.106;16.688;2022-08-01T08:39:41;43.97;24.60
69464;DHT22;56665;41.106;16.688;2022-08-01T08:42:48;44.30;23.79
69464;DHT22;56665;41.106;16.688;2022-08-01T08:45:53;43.93;23.61
69464;DHT22;56665;41.106;16.688;2022-08-01T08:48:57;44.03;23.72
69464;DHT22;56665;41.106;16.688;2022-08-01T08:52:02;45.06;22.88
69464;DHT22;56665;41.106;16.688;2022-08-01T08:55:08;44.94;22.91
69464;DHT22;56665;41.106;16.688;2022-08-01T08:58:13;44.51;23.23
69464;DHT22;56665;41.106;16.688;2022-08-01T09:01:20;43.83;23.60
69464;DHT22;56665;41.106;16.688;2022-08-01T09:04:25;44.58;23.30
69464;DHT22;56665;41.106;16.688;2022-08-01T09:07:29;44.16;24.00
69464;DHT22;56665;41.106;16.688;2022-08-01T09:10:32;43.58;24.75
69464;DHT22;56665;41.106;16.688;2022-08-01T09:13:36;42.49;23.87
69464;DHT22;56665;41.106;16.688;2022-08-01T09:16:44;42.87;24.26
69464;DHT22;56665;41.106;16.688;2022-08-01T09:19:50;42.19;24.60
69464;DHT22;56665;41.106;16.688;2022-08-01T09:22:57;41.54;25.53
69464;DHT22;56665;41.106;16.688;2022-08-01T09:26:01;41.06;26.00
69464;DHT22;56665;41.106;16.688;2022-08-01T09:29:08;40.46;25.43
69464;DHT22;56665;41.106;16.688;2022-08-01T09:32:21;39.76;25.65
69464;DHT22;56665;41.106;16.688;2022-08-01T09:35:28;40.09;25.57
69464;DHT22;56665;41.106;16.688;2022-08-01T09:38:34;40.11;25.39
69464;DHT22;56665;41.106;16.688;2022-08-01T09:41:39;39.87;26.02
69464;DHT22;56665;41.106;16.688;2022-08-01T09:44:44;39.13;26.89
69464;DHT22;56665;41.106;16.688;2022-08-01T09:47:48;39.26;27.81
69464;DHT22;56665;41.106;16.688;2022-08-01T09:50:52;39.53;26.97
69464;DHT22;56665;41.106;16.688;2022-08-01T09:53:56;38.96;27.48
69464;DHT22;56665;41.106;16.688;2022-08-01T09:57:14;38.69;26.98
69464;DHT22;56665;41.106;16.688;2022-08-01T10:00:18;38.71;27.40
69464;DHT22;56665;41.106;16.688;2022-08-01T10:03:24;37.93;28.10
69464;DHT22;56665;41.106;16.688;2022-08-01T10:06:29;38.06;28.04
69464;DHT22;56665;41.106;16.688;2022-08-01T10:09:35;38.42;27.28
69464;DHT22;56665;41.106;16.688;2022-08-01T10:12:42;38.03;27.05
69464;DHT22;56665;41.106;16.688;2022-08-01T10:15:46;37.55;28.43
69464;DHT22;56665;41.106;16.688;2022-08-01T10:18:52;37.31;28.30
69464;DHT22;56665;41.106;16.688;2022-08-01T10:21:57;37.41;27.46
69464;DHT22;56665;41.106;16.688;2022-08-01T10:25:04;37.07;28.35
69464;DHT22;56665;41.106;16.688;2022-08-01T10:28:19;36.91;27.84
69464;DHT22;56665;41.106;16.688;2022-08-01T10:31:24;36.48;28.69
69464;DHT22;56665;41.106;16.688;2022-08-01T10:34:29;36.88;28.70
69464;DHT22;56665;41.106;16.688;2022-08-01T10:37:35;37.04;28.24
69464;DHT22;56665;41.106;16.688;2022-08-01T10:40:39;37.07;27.43
69464;DHT22;56665;41.106;16.688;2022-08-01T10:43:43;37.41;27.97
69464;DHT22;56665;41.106;16.688;2022-08-01T10:46:54;37.49;28.61
69464;DHT22;56665;41.106;16.688;2022-08-01T10:50:07;37.19;27.51
69464;DHT22;56665;41.106;16.688;2022-08-01T10:53:16;36.46;29.08
69464;DHT22;56665;41.106;16.688;2022-08-01T10:59:05;36.70;31.04
69464;DHT22;56665;41.106;16.688;2022-08-01T11:02:08;36.87;30.72
69464;DHT22;56665;41.106;16.688;2022-08-01T11:05:20;37.21;31.52
69464;DHT22;56665;41.106;16.688;2022-08-01T11:08:25;37.52;31.39
69464;DHT22;56665;41.106;16.688;2022-08-01T11:11:29;37.08;31.67
69464;DHT22;56665;41.106;16.688;2022-08-01T11:14:34;36.83;32.90
69464;DHT22;56665;41.106;16.688;2022-08-01T11:17:46;37.04;32.27
69464;DHT22;56665;41.106;16.688;2022-08-01T11:20:57;36.51;31.46
69464;DHT22;56665;41.106;16.688;2022-08-01T11:24:01;36.39;30.06
69464;DHT22;56665;41.106;16.688;2022-08-01T11:27:32;36.60;29.88
69464;DHT22;56665;41.106;16.688;2022-08-01T11:30:37;36.64;29.62
69464;DHT22;56665;41.106;16.688;2022-08-01T11:36:45;36.77;30.05
69464;DHT22;56665;41.106;16.688;2022-08-01T11:43:19;36.94;29.76
69464;DHT22;56665;41.106;16.688;2022-08-01T11:47:01;36.66;29.44
69464;DHT22;56665;41.106;16.688;2022-08-01T11:50:06;36.58;29.96
69464;DHT22;56665;41.106;16.688;2022-08-01T11:53:31;36.26;30.66
69464;DHT22;56665;41.106;16.688;2022-08-01T11:56:37;36.33;30.51
69464;DHT22;56665;41.106;16.688;2022-08-01T11:59:50;36.50;29.54
69464;DHT22;56665;41.106;16.688;2022-08-01T12:03:02;36.60;29.70
69464;DHT22;56665;41.106;16.688;2022-08-01T12:06:06;36.06;29.89
69464;DHT22;56665;41.106;16.688;2022-08-01T12:09:22;35.49;30.73
69464;DHT22;56665;41.106;16.688;2022-08-01T12:12:28;34.89;31.32
69464;DHT22;56665;41.106;16.688;2022-08-01T12:15:37;35.01;30.62
69464;DHT22;56665;41.106;16.688;2022-08-01T12:18:42;34.86;31.33
69464;DHT22;56665;41.106;16.688;2022-08-01T12:22:14;35.07;30.67
69464;DHT22;56665;41.106;16.688;2022-08-01T12:25:18;35.55;30.58
69464;DHT22;56665;41.106;16.688;2022-08-01T12:28:21;35.37;30.58
69464;DHT22;56665;41.106;16.688;2022-08-01T12:31:33;35.42;30.96
69464;DHT22;56665;41.106;16.688;2022-08-01T12:34:37;35.68;32.60
69464;DHT22;56665;41.106;16.688;2022-08-01T12:37:44;35.76;32.83
69464;DHT22;56665;41.106;16.688;2022-08-01T12:40:48;35.49;34.26
69464;DHT22;56665;41.106;16.688;2022-08-01T12:43:52;35.57;34.70
69464;DHT22;56665;41.106;16.688;2022-08-01T12:46:57;35.48;33.87
69464;DHT22;56665;41.106;16.688;2022-08-01T12:50:01;35.28;34.31
69464;DHT22;56665;41.106;16.688;2022-08-01T12:53:08;35.13;34.88
69464;DHT22;56665;41.106;16.688;2022-08-01T12:56:12;35.30;33.76
69464;DHT22;56665;41.106;16.688;2022-08-01T12:59:34;35.21;34.36
69464;DHT22;56665;41.106;16.688;2022-08-01T13:02:40;35.30;34.31
69464;DHT22;56665;41.106;16.688;2022-08-01T13:05:47;35.24;34.04
69464;DHT22;56665;41.106;16.688;2022-08-01T13:08:54;34.97;33.99
69464;DHT22;56665;41.106;16.688;2022-08-01T13:11:57;35.17;34.26
69464;DHT22;56665;41.106;16.688;2022-08-01T13:15:38;35.15;34.91
69464;DHT22;56665;41.106;16.688;2022-08-01T13:18:54;35.13;36.92
69464;DHT22;56665;41.106;16.688;2022-08-01T13:21:59;35.21;37.13
69464;DHT22;56665;41.106;16.688;2022-08-01T13:25:13;35.31;35.38
69464;DHT22;56665;41.106;16.688;2022-08-01T13:28:19;35.34;35.42
69464;DHT22;56665;41.106;16.688;2022-08-01T13:31:32;35.01;35.40
69464;DHT22;56665;41.106;16.688;2022-08-01T13:34:36;34.42;36.63
69464;DHT22;56665;41.106;16.688;2022-08-01T13:37:42;34.71;36.92
69464;DHT22;56665;41.106;16.688;2022-08-01T13:40:46;35.04;35.76
69464;DHT22;56665;41.106;16.688;2022-08-01T13:43:51;35.47;34.33
69464;DHT22;56665;41.106;16.688;2022-08-01T13:46:54;34.91;35.93
69464;DHT22;56665;41.106;16.688;2022-08-01T13:50:00;35.26;36.62
69464;DHT22;56665;41.106;16.688;2022-08-01T13:53:06;34.84;35.46
69464;DHT22;56665;41.106;16.688;2022-08-01T13:56:09;34.57;34.72
69464;DHT22;56665;41.106;16.688;2022-08-01T13:59:15;34.71;36.55
69464;DHT22;56665;41.106;16.688;2022-08-01T14:02:19;34.82;36.19
69464;DHT22;56665;41.106;16.688;2022-08-01T14:05:24;34.39;37.64
69464;DHT22;56665;41.106;16.688;2022-08-01T14:08:28;34.63;38.78
69464;DHT22;56665;41.106;16.688;2022-08-01T14:11:32;34.84;38.83
69464;DHT22;56665;41.106;16.688;2022-08-01T14:14:35;35.08;38.21
69464;DHT22;56665;41.106;16.688;2022-08-01T14:17:41;35.00;37.44
69464;DHT22;56665;41.106;16.688;2022-08-01T14:20:46;34.98;36.47
69464;DHT22;56665;41.106;16.688;2022-08-01T14:23:50;34.80;36.14
69464;DHT22;56665;41.106;16.688;2022-08-01T14:26:54;34.40;36.57
69464;DHT22;56665;41.106;16.688;2022-08-01T14:29:58;34.25;36.15
69464;DHT22;56665;41.106;16.688;2022-08-01T14:33:02;34.28;36.88
69464;DHT22;56665;41.106;16.688;2022-08-01T14:36:06;34.02;36.97
69464;DHT22;56665;41.106;16.688;2022-08-01T14:39:10;33.87;36.21
69464;DHT22;56665;41.106;16.688;2022-08-01T14:42:14;33.78;35.05
69464;DHT22;56665;41.106;16.688;2022-08-01T14:45:18;33.70;34.82
69464;DHT22;56665;41.106;16.688;2022-08-01T14:48:23;33.82;35.24
69464;DHT22;56665;41.106;16.688;2022-08-01T14:51:27;33.78;34.41
69464;DHT22;56665;41.106;16.688;2022-08-01T14:54:36;33.70;34.66
69464;DHT22;56665;41.106;16.688;2022-08-01T15:00:50;33.51;34.93
69464;DHT22;56665;41.106;16.688;2022-08-01T15:03:57;33.33;34.82
69464;DHT22;56665;41.106;16.688;2022-08-01T15:07:02;33.17;35.93
69464;DHT22;56665;41.106;16.688;2022-08-01T15:10:06;33.22;36.10
69464;DHT22;56665;41.106;16.688;2022-08-01T15:13:11;32.90;36.32
69464;DHT22;56665;41.106;16.688;2022-08-01T15:16:15;32.89;36.16
69464;DHT22;56665;41.106;16.688;2022-08-01T15:19:20;32.78;36.41
69464;DHT22;56665;41.106;16.688;2022-08-01T15:22:24;32.65;38.06
69464;DHT22;56665;41.106;16.688;2022-08-01T15:25:28;32.48;36.58
69464;DHT22;56665;41.106;16.688;2022-08-01T15:28:32;32.32;36.80
69464;DHT22;56665;41.106;16.688;2022-08-01T15:31:36;32.11;37.43
69464;DHT22;56665;41.106;16.688;2022-08-01T15:34:40;31.90;39.70
69464;DHT22;56665;41.106;16.688;2022-08-01T15:37:44;31.73;37.69
69464;DHT22;56665;41.106;16.688;2022-08-01T15:40:47;31.67;37.80
69464;DHT22;56665;41.106;16.688;2022-08-01T15:43:51;31.57;39.77
69464;DHT22;56665;41.106;16.688;2022-08-01T15:46:55;31.62;40.48
69464;DHT22;56665;41.106;16.688;2022-08-01T15:49:59;31.53;41.24
69464;DHT22;56665;41.106;16.688;2022-08-01T15:53:05;31.30;41.86
69464;DHT22;56665;41.106;16.688;2022-08-01T15:56:09;31.08;42.62
69464;DHT22;56665;41.106;16.688;2022-08-01T15:59:13;31.00;42.99
69464;DHT22;56665;41.106;16.688;2022-08-01T16:02:17;30.89;42.40
69464;DHT22;56665;41.106;16.688;2022-08-01T16:05:20;30.84;42.23
69464;DHT22;56665;41.106;16.688;2022-08-01T16:08:24;30.79;42.05
69464;DHT22;56665;41.106;16.688;2022-08-01T16:11:30;30.67;42.06
69464;DHT22;56665;41.106;16.688;2022-08-01T16:14:34;30.60;42.55
69464;DHT22;56665;41.106;16.688;2022-08-01T16:17:38;30.56;43.65
69464;DHT22;56665;41.106;16.688;2022-08-01T16:20:42;30.40;43.47
69464;DHT22;56665;41.106;16.688;2022-08-01T16:23:46;30.34;43.40
69464;DHT22;56665;41.106;16.688;2022-08-01T16:26:49;30.28;41.49
69464;DHT22;56665;41.106;16.688;2022-08-01T16:29:54;30.17;42.12
69464;DHT22;56665;41.106;16.688;2022-08-01T16:32:57;30.10;42.62
69464;DHT22;56665;41.106;16.688;2022-08-01T16:36:01;30.03;43.67
69464;DHT22;56665;41.106;16.688;2022-08-01T16:39:05;29.96;43.24
69464;DHT22;56665;41.106;16.688;2022-08-01T16:42:10;29.90;42.97
69464;DHT22;56665;41.106;16.688;2022-08-01T16:45:14;29.82;42.05
69464;DHT22;56665;41.106;16.688;2022-08-01T16:48:17;29.72;41.17
69464;DHT22;56665;41.106;16.688;2022-08-01T16:51:22;29.66;41.79
69464;DHT22;56665;41.106;16.688;2022-08-01T16:54:25;29.69;41.50
69464;DHT22;56665;41.106;16.688;2022-08-01T16:57:32;29.66;41.63
69464;DHT22;56665;41.106;16.688;2022-08-01T17:00:44;29.61;41.44
69464;DHT22;56665;41.106;16.688;2022-08-01T17:03:49;29.57;42.37
69464;DHT22;56665;41.106;16.688;2022-08-01T17:06:53;29.54;42.78
69464;DHT22;56665;41.106;16.688;2022-08-01T17:09:57;29.55;43.19
69464;DHT22;56665;41.106;16.688;2022-08-01T17:13:04;29.45;44.19
69464;DHT22;56665;41.106;16.688;2022-08-01T17:16:09;29.39;45.79
69464;DHT22;56665;41.106;16.688;2022-08-01T17:19:13;29.30;46.74
69464;DHT22;56665;41.106;16.688;2022-08-01T17:22:18;29.26;47.32
69464;DHT22;56665;41.106;16.688;2022-08-01T17:25:24;29.17;48.17
69464;DHT22;56665;41.106;16.688;2022-08-01T17:28:27;29.17;48.77
69464;DHT22;56665;41.106;16.688;2022-08-01T17:31:31;29.03;49.58
69464;DHT22;56665;41.106;16.688;2022-08-01T17:34:35;28.93;50.37
69464;DHT22;56665;41.106;16.688;2022-08-01T17:37:40;28.90;50.54
69464;DHT22;56665;41.106;16.688;2022-08-01T17:40:46;28.86;50.23
69464;DHT22;56665;41.106;16.688;2022-08-01T17:43:51;28.86;50.04
69464;DHT22;56665;41.106;16.688;2022-08-01T17:46:55;28.83;50.19
69464;DHT22;56665;41.106;16.688;2022-08-01T17:50:14;28.86;50.47
69464;DHT22;56665;41.106;16.688;2022-08-01T17:53:18;28.84;50.63
69464;DHT22;56665;41.106;16.688;2022-08-01T17:56:27;28.80;50.56
69464;DHT22;56665;41.106;16.688;2022-08-01T17:59:31;28.79;50.16
69464;DHT22;56665;41.106;16.688;2022-08-01T18:02:35;28.75;50.62
69464;DHT22;56665;41.106;16.688;2022-08-01T18:05:39;28.72;51.33
69464;DHT22;56665;41.106;16.688;2022-08-01T18:08:43;28.66;51.90
69464;DHT22;56665;41.106;16.688;2022-08-01T18:11:50;28.66;52.21
69464;DHT22;56665;41.106;16.688;2022-08-01T18:14:54;28.56;53.68
69464;DHT22;56665;41.106;16.688;2022-08-01T18:17:57;28.50;53.74
69464;DHT22;56665;41.106;16.688;2022-08-01T18:21:02;28.38;54.36
69464;DHT22;56665;41.106;16.688;2022-08-01T18:24:05;28.27;55.11
69464;DHT22;56665;41.106;16.688;2022-08-01T18:27:09;28.19;55.85
69464;DHT22;56665;41.106;16.688;2022-08-01T18:30:13;28.12;56.34
69464;DHT22;56665;41.106;16.688;2022-08-01T18:33:17;28.02;55.96
69464;DHT22;56665;41.106;16.688;2022-08-01T18:36:21;28.01;56.57
69464;DHT22;56665;41.106;16.688;2022-08-01T18:39:24;27.98;56.20
69464;DHT22;56665;41.106;16.688;2022-08-01T18:42:28;27.91;57.06
69464;DHT22;56665;41.106;16.688;2022-08-01T18:45:32;27.91;56.43
69464;DHT22;56665;41.106;16.688;2022-08-01T18:48:37;27.91;56.62
69464;DHT22;56665;41.106;16.688;2022-08-01T18:51:41;27.84;55.90
69464;DHT22;56665;41.106;16.688;2022-08-01T18:54:45;27.87;55.54
69464;DHT22;56665;41.106;16.688;2022-08-01T18:57:48;27.85;55.41
69464;DHT22;56665;41.106;16.688;2022-08-01T19:00:52;27.84;55.58
69464;DHT22;56665;41.106;16.688;2022-08-01T19:03:56;27.81;55.69
69464;DHT22;56665;41.106;16.688;2022-08-01T19:07:00;27.78;55.71
69464;DHT22;56665;41.106;16.688;2022-08-01T19:10:04;27.81;55.76
69464;DHT22;56665;41.106;16.688;2022-08-01T19:13:08;27.77;55.64
69464;DHT22;56665;41.106;16.688;2022-08-01T19:16:13;27.77;55.67
69464;DHT22;56665;41.106;16.688;2022-08-01T19:19:18;27.78;56.02
69464;DHT22;56665;41.106;16.688;2022-08-01T19:22:23;27.76;56.01
69464;DHT22;56665;41.106;16.688;2022-08-01T19:25:27;27.73;56.46
69464;DHT22;56665;41.106;16.688;2022-08-01T19:28:38;27.76;56.04
69464;DHT22;56665;41.106;16.688;2022-08-01T19:31:46;27.76;55.86
69464;DHT22;56665;41.106;16.688;2022-08-01T19:35:05;27.73;56.08
69464;DHT22;56665;41.106;16.688;2022-08-01T19:38:10;27.73;56.14
69464;DHT22;56665;41.106;16.688;2022-08-01T19:41:15;27.71;56.02
69464;DHT22;56665;41.106;16.688;2022-08-01T19:44:21;27.74;56.26